Orbital elements of COSMOS 970 DEB
| Launched | 20 December 1977 |
| Flight ended | – |
| Launch site | Tyuratam Missile and Space Center, Kazakhstan (Also known as Baikonur Cosmodrome) |
| Owner | Commonwealth of Independent States (former USSR) |
| NORAD ID | 20032 |
| Date fetched |
Epoch osculation |
Inc. [°] |
Ecc. | RA asc node [hr] |
Arg Peri. [°] |
Mean anom [°] |
Mean motion [rev/day] |
Abs. mag |
| Date fetched |
Epoch osculation |
Inc. [°] |
Ecc. | RA asc node [hr] |
Arg Peri. [°] |
Mean anom [°] |
Mean motion [rev/day] |
Abs. mag |
| 2026 May 03 17:57 | 2026 Apr 30 09:22:11 | 65.6628 | 0.03563 | 23.8437 | 330.4250 | 211.5313 | 14.38636 | – |
| 2026 May 02 17:57 | 2026 Apr 30 09:22:11 | 65.6628 | 0.03563 | 23.8437 | 330.4250 | 211.5313 | 14.38636 | – |
| 2026 May 01 17:56 | 2026 Apr 30 09:22:11 | 65.6628 | 0.03563 | 23.8437 | 330.4250 | 211.5313 | 14.38636 | – |
| 2026 Apr 30 17:56 | 2026 Apr 30 09:22:11 | 65.6628 | 0.03563 | 23.8437 | 330.4250 | 211.5313 | 14.38636 | – |
| 2026 Apr 29 17:57 | 2026 Apr 23 12:10:00 | 65.6621 | 0.03563 | 1.1152 | 333.8647 | 211.5313 | 14.38636 | – |
| 2026 Apr 28 17:56 | 2026 Apr 23 12:10:00 | 65.6621 | 0.03563 | 1.1152 | 333.8647 | 211.5313 | 14.38636 | – |
| 2026 Apr 27 17:58 | 2026 Apr 23 12:10:00 | 65.6621 | 0.03563 | 1.1152 | 333.8647 | 211.5313 | 14.38636 | – |
| 2026 Apr 26 17:58 | 2026 Apr 23 12:10:00 | 65.6621 | 0.03563 | 1.1152 | 333.8647 | 211.5313 | 14.38636 | – |
| 2026 Apr 25 17:58 | 2026 Apr 23 12:10:00 | 65.6621 | 0.03563 | 1.1152 | 333.8647 | 211.5313 | 14.38636 | – |
| 2026 Apr 24 17:59 | 2026 Apr 23 12:10:00 | 65.6621 | 0.03563 | 1.1152 | 333.8647 | 211.5313 | 14.38636 | – |
| 2026 Apr 23 17:57 | 2026 Apr 19 04:35:10 | 65.6631 | 0.03562 | 1.9124 | 336.0203 | 211.5313 | 14.38636 | – |
| 2026 Apr 22 17:57 | 2026 Apr 19 04:35:10 | 65.6631 | 0.03562 | 1.9124 | 336.0203 | 211.5313 | 14.38636 | – |
| 2026 Apr 21 17:57 | 2026 Apr 19 04:35:10 | 65.6631 | 0.03562 | 1.9124 | 336.0203 | 211.5313 | 14.38636 | – |
| 2026 Apr 20 17:57 | 2026 Apr 19 04:35:10 | 65.6631 | 0.03562 | 1.9124 | 336.0203 | 211.5313 | 14.38636 | – |
| 2026 Apr 19 17:58 | 2026 Apr 19 04:35:10 | 65.6631 | 0.03562 | 1.9124 | 336.0203 | 211.5313 | 14.38636 | – |
| 2026 Apr 18 17:56 | 2026 Apr 13 02:48:00 | 65.6615 | 0.03560 | 3.0342 | 339.0604 | 211.5313 | 14.38636 | – |
| 2026 Apr 16 17:57 | 2026 Apr 13 02:48:00 | 65.6615 | 0.03560 | 3.0342 | 339.0604 | 211.5313 | 14.38636 | – |
| 2026 Apr 14 17:57 | 2026 Apr 13 02:48:00 | 65.6615 | 0.03560 | 3.0342 | 339.0604 | 211.5313 | 14.38636 | – |
| 2026 Apr 13 17:57 | 2026 Apr 13 02:48:00 | 65.6615 | 0.03560 | 3.0342 | 339.0604 | 211.5313 | 14.38636 | – |
| 2026 Apr 12 17:57 | 2026 Apr 07 21:42:39 | 65.6617 | 0.03561 | 3.9966 | 341.6473 | 211.5313 | 14.38636 | – |
| 2026 Apr 11 17:57 | 2026 Apr 07 21:42:39 | 65.6617 | 0.03561 | 3.9966 | 341.6473 | 211.5313 | 14.38636 | – |
| 2026 Apr 10 17:58 | 2026 Apr 07 21:42:39 | 65.6617 | 0.03561 | 3.9966 | 341.6473 | 211.5313 | 14.38636 | – |
| 2026 Apr 09 18:01 | 2026 Apr 07 21:42:39 | 65.6617 | 0.03561 | 3.9966 | 341.6473 | 211.5313 | 14.38636 | – |
| 2026 Apr 08 17:57 | 2026 Apr 07 21:42:39 | 65.6617 | 0.03561 | 3.9966 | 341.6473 | 211.5313 | 14.38636 | – |
| 2026 Apr 07 17:57 | 2026 Apr 01 09:22:36 | 65.6594 | 0.03565 | 5.1990 | 344.8962 | 211.5313 | 14.38636 | – |
| 2026 Apr 06 17:57 | 2026 Apr 01 09:22:36 | 65.6594 | 0.03565 | 5.1990 | 344.8962 | 211.5313 | 14.38636 | – |